Yichun, China
Current Conditions -  °F | °C
As of 3:00 AM on Sunday 26 Oct 2014 (Local Time) from ZGHA Reporting Station
Haze Haze  
Wind Chill: 63°   Ceiling: Unl
Heat Index: 63°   Visibility: 2.8mi
Dew Point: 57°   Wind: 2mph
Humidity: 82%   Direction: 20°NNE
Pressure: 29.97"   Gusts: NA
Location:  27.79°N, 114.37°E
Report Text: ZGHA 251900Z 02001MPS 4500 BR NSC 17/14 Q1015 NOSIG
Loading
Personal Weather Stations






























Interactive Weather Map
Tropical Storm Tracking
New forecast layout! Learn more

10-Day Weather Forecast

Advertisements
Track Severe Weather on mobile